• Join FlightAware (Why Join?)
  • Login
  • US Flag 
08:20AM EDT


 

Airport Tracker/Info


-or-


 

Live Flight TrackerFlight Track Log ✈ LXJ523 ✈ 01-Jul-2013 ✈ KOAK - KOAK

Flight Track Log - Related Links

Times and Time Zones

All times are in EDT time to prevent confusion due to time zone crossing. See the LXJ523 flight status page for this flight to view local times or setup timezone preferences in your user account.

Time Position Orientation Groundspeed Altitude Reporting Facility
EDT Latitude Longitude Course Direction KTS MPH feet Rate Location/Type
04:10PM 37.7167 -122.2333 302° West 160 184 600  Level Northern Cal TRACON
04:11PM 37.7500 -122.3000 302° West 236 272 2,600 2,640 Climbing Northern Cal TRACON
04:12PM 37.7500 -122.3667 270° West 263 303 5,700 2,580 Climbing Northern Cal TRACON
04:14PM 37.6067 -122.5289 222° Southwest 310 357 11,600 2,220 Climbing Oakland Center
04:15PM 37.5769 -122.6408 252° West 331 381 13,500 1,800 Climbing Oakland Center
04:16PM 37.5497 -122.7656 255° West 363 418 15,400 1,800 Climbing Oakland Center
04:17PM 37.5189 -122.8939 253° West 380 437 17,200 1,800 Climbing Oakland Center
04:18PM 37.4861 -123.0283 253° West 397 457 19,100 1,800 Climbing Oakland Center
04:19PM 37.4531 -123.1636 253° West 403 464 20,900 1,740 Climbing Oakland Center
04:20PM 37.4194 -123.3028 253° West 413 475 22,700 1,740 Climbing Oakland Center
04:21PM 37.3844 -123.4428 253° West 420 483 24,500 1,740 Climbing Oakland Center
04:22PM 37.3494 -123.5839 253° West 422 486 26,300 1,680 Climbing Oakland Center
04:24PM 37.3147 -123.7233 253° West 421 484 28,000 1,800 Climbing Oakland Center
04:25PM 37.2731 -123.8933 253° West 424 488 30,000 1,620 Climbing Oakland Center
04:26PM 37.2369 -124.0342 252° West 425 489 31,400 1,320 Climbing Oakland Center
04:27PM 37.2014 -124.1789 253° West 434 499 32,700 1,260 Climbing Oakland Center
04:28PM 37.1644 -124.3233 252° West 436 502 34,000 1,200 Climbing Oakland Center
04:29PM 37.1272 -124.4675 252° West 436 502 35,200 1,140 Climbing Oakland Center
04:30PM 37.0906 -124.6114 252° West 435 501 36,400 1,020 Climbing Oakland Center
04:31PM 37.0542 -124.7561 253° West 438 504 37,400 780 Climbing Oakland Center
04:32PM 37.0161 -124.9008 252° West 438 504 38,000 240 Climbing Oakland Center
04:33PM 36.9783 -125.0478 252° West 444 511 38,000  Level Oakland Center
04:34PM 36.9311 -125.2231 251° West 444 511 38,000  Level Oakland Center
04:35PM 36.8933 -125.3686 252° West 443 510 38,000  Level Oakland Center
04:36PM 36.8544 -125.5131 251° West 441 507 38,000  Level Oakland Center
04:37PM 36.8175 -125.6569 252° West 437 503 38,000  Level Oakland Center
04:38PM 36.7786 -125.8006 251° West 437 503 38,000  Level Oakland Center
04:39PM 36.7347 -125.9622 251° West 435 501 38,000  Level Oakland Center
04:40PM 36.7006 -126.0819 250° West 431 496 38,000  Level Oakland Center
04:41PM 36.6628 -126.2247 252° West 433 498 38,000  Level Oakland Center
04:42PM 36.6161 -126.3947 251° West 433 498 38,000  Level Oakland Center
04:43PM 36.5764 -126.5350 251° West 433 498 38,000  Level Oakland Center
04:44PM 36.5372 -126.6769 251° West 433 498 38,000  Level Oakland Center
04:45PM 36.4972 -126.8175 251° West 433 498 38,000  Level Oakland Center
04:46PM 36.4556 -126.9572 250° West 433 498 38,000  Level Oakland Center
04:47PM 36.3789 -127.0564 226° Southwest 417 480 38,000  Level Oakland Center
04:48PM 36.2694 -127.0608 182° South 406 467 38,000  Level Oakland Center
04:49PM 36.1864 -126.9711 139° Southeast 407 468 38,000 -1,140 Level Oakland Center
04:50PM 36.1742 -126.7972 95° East 432 497 35,700 -2,100 Descending Oakland Center
04:51PM 36.2194 -126.6514 69° East 449 517 33,700 -2,040 Descending Oakland Center
04:52PM 36.2419 -126.5031 79° East 441 507 31,600 -2,100 Descending Oakland Center
04:53PM 36.2911 -126.3547 68° East 455 524 29,500 -1,860 Descending Oakland Center
04:54PM 36.3453 -126.2089 65° Northeast 462 532 27,800 -1,800 Descending Oakland Center
04:55PM 36.3983 -126.0669 65° Northeast 461 531 25,900 -1,860 Descending Oakland Center
04:56PM 36.4500 -125.9236 66° East 458 527 24,000 -1,860 Descending Oakland Center
04:57PM 36.5025 -125.7792 66° East 459 528 22,100 -2,100 Descending Oakland Center
04:58PM 36.5619 -125.6147 66° East 447 514 19,800 -2,100 Descending Oakland Center
04:59PM 36.6117 -125.4814 65° Northeast 431 496 17,900 -1,860 Descending Oakland Center
05:00PM 36.6547 -125.3542 67° East 428 493 16,100 -1,440 Descending Oakland Center
05:01PM 36.7044 -125.2239 65° Northeast 413 475 15,000 -600 Descending Oakland Center
05:02PM 36.7469 -125.0986 67° East 399 459 14,900 -60 Descending Oakland Center
05:03PM 36.7917 -124.9725 66° East 397 457 14,900  Level Oakland Center
05:04PM 36.8386 -124.8447 65° Northeast 402 463 14,900  Level Oakland Center
05:06PM 36.8931 -124.6897 66° East 406 467 14,900  Level Oakland Center
05:07PM 36.9381 -124.5606 66° East 406 467 14,900  Level Oakland Center
05:08PM 36.9825 -124.4306 67° East 408 470 14,900  Level Oakland Center
05:10PM 37.0719 -124.1728 66° East 405 466 14,900 -780 Level Oakland Center
05:12PM 37.1544 -123.9258 67° East 378 435 11,800 -1,560 Descending Oakland Center
05:13PM 37.1931 -123.8100 67° East 364 419 10,200 -900 Descending Oakland Center
05:14PM 37.2369 -123.6789 67° East 344 396 10,000 -180 Descending Oakland Center
05:15PM 37.2803 -123.5606 65° Northeast 366 421 9,900 -60 Descending Oakland Center
05:16PM 37.3206 -123.4389 67° East 374 430 9,900  Level Oakland Center
05:17PM 37.3611 -123.3169 67° East 379 436 9,900  Level Oakland Center
05:18PM 37.3567 -123.1981 93° East 358 412 9,900  Level Oakland Center
05:19PM 37.3275 -123.0961 110° East 321 369 9,900  Level Oakland Center
05:20PM 37.2978 -123.0006 111° Southeast 303 349 9,900  Level Oakland Center
05:21PM 37.2700 -122.9089 111° Southeast 291 335 9,900  Level Oakland Center
05:22PM 37.2183 -122.8167 125° Southeast 292 336 9,900  Level Oakland Center
05:23PM 37.1750 -122.8853 232° Southwest 305 351 9,900  Level Oakland Center
05:24PM 37.2039 -122.9853 290° West 307 353 9,900  Level Oakland Center
05:25PM 37.2347 -123.0867 291° West 309 356 9,900  Level Oakland Center
05:26PM 37.2639 -123.1881 290° West 309 356 9,900  Level Oakland Center
05:27PM 37.2939 -123.2886 291° West 308 354 9,900  Level Oakland Center
05:28PM 37.3597 -123.3414 327° Northwest 322 371 9,900  Level Oakland Center
05:29PM 37.3858 -123.2542 69° East 308 354 9,900  Level Oakland Center
05:30PM 37.3472 -123.1625 118° Southeast 299 344 9,900  Level Oakland Center
05:31PM 37.3133 -123.0514 111° Southeast 290 334 9,900  Level Oakland Center
05:32PM 37.2878 -122.9639 110° East 276 318 9,900  Level Oakland Center
05:33PM 37.2614 -122.8806 112° Southeast 265 305 9,900  Level Oakland Center
05:34PM 37.2103 -122.8197 137° Southeast 279 321 9,900  Level Oakland Center
05:35PM 37.1775 -122.8978 242° Southwest 288 331 9,900  Level Oakland Center
05:36PM 37.2492 -122.9314 340° North 310 357 9,900  Level Oakland Center
05:37PM 37.2836 -122.8361 66° East 305 351 9,900  Level Oakland Center
05:38PM 37.3053 -122.7342 75° East 303 349 9,900 -300 Level Oakland Center
05:39PM 37.3289 -122.6142 76° East 298 343 9,400 -600 Descending Oakland Center
05:40PM 37.3467 -122.5161 77° East 293 337 8,700 -780 Descending Oakland Center
05:41PM 37.3647 -122.4197 77° East 288 331 7,900 -420 Descending Oakland Center
05:42PM 37.3833 -122.3333 75° East 274 315 8,000 -360 Climbing Northern Cal TRACON
05:43PM 37.4000 -122.2500 76° East 278 320 7,300 -1,200 Descending Northern Cal TRACON
05:44PM 37.4333 -122.1667 63° Northeast 264 304 5,600 -1,680 Descending Northern Cal TRACON
05:45PM 37.4833 -122.1000 47° Northeast 253 291 4,000 -900 Descending Northern Cal TRACON
05:46PM 37.5500 -122.0667 22° Northeast 256 295 3,900 -600 Descending Northern Cal TRACON
05:47PM 37.6000 -122.0833 345° North 191 220 2,800 -1,020 Descending Northern Cal TRACON
05:48PM 37.6333 -122.1167 322° Northwest 152 175 1,900 -840 Descending Northern Cal TRACON
05:49PM 37.6667 -122.1500 322° Northwest 132 152 1,200 -660 Descending Northern Cal TRACON
05:50PM 37.6833 -122.1833 302° West 135 155 600 -600 Descending Northern Cal TRACON